Airfield :







YOU CAN JOIN US ON...

 
LOGIN :

Register | Disclaimer

   EN    FR    IT 

 









Legend :    VFR   Marginal VFR   IFR   Intensive IFR   Very Intensive IFR
Visi :
Ceiling :
>= 8 km
>= 3000ft
5 to 8 km
1000 to 3000 ft
1500m to 5 km
500 to 1000 ft
800 to 1500m
200 to 500 ft
< 800m
< 200 ft
Symbols :   Thunderstorms  Fog  Heavy snow  Heavy precipitations  Wind > 20 kt






- Airport Elevation : 48 ft
- IATA code : REK


BIRK - Reykjavik

CURRENT METAR :
  • 262000Z 19013KT 9999 FEW025 SCT042 02/M02 Q0964

EXPIRED METARs :
  • 261900Z 19025KT 9999 -SHRA FEW010 SCT018 OVC026 02/M01 Q0963
  • 261800Z 17011KT 9999 -SHRA FEW015 BKN020CB 02/M01 Q0962

TAF TAF BIRK
Valid from the 26 at 21:00 until the 27 at 21:00 UTC


261929Z 2621/2721 17020KT 9000 -SHSNRA FEW010 BKN015 OVC025 TX02/2621Z TNM02/2703Z
BECMG 2621/2623 09015G25KT 9999 BKN025
PROB40 2703/2721 3500 SHSN OVC012



MET'MAP, your aeronautical weather chart ! - Copyright ORBIFLY December 2007 - Disclaimer

ORBIFLY MET'MAP TEAM :

Programming & Development : Alexandra Zaïnal
Concept & original design : Baudouin d'Aumeries
Assistance for programming : Marc-Olivier Méhu
Technical & hardware support : Manuel Goepfert

Contact : metmap@orbifly.com




SOURCES & CREDITS :

   NOAA